createdAt,value
2022-09-18T00:00:22.664Z,7.45
2022-09-18T00:02:51.143Z,8.70
2022-09-18T00:05:20.981Z,4.90
2022-09-18T00:07:49.330Z,5.38
2022-09-18T00:10:17.648Z,5.15
2022-09-18T00:12:45.977Z,5.65
2022-09-18T00:15:14.441Z,8.38
2022-09-18T00:17:42.811Z,7.43
2022-09-18T00:20:11.855Z,9.45
2022-09-18T00:22:41.707Z,8.45
2022-09-18T00:25:10.951Z,9.77
2022-09-18T00:27:39.264Z,7.90
2022-09-18T00:30:08.125Z,7.47
2022-09-18T00:32:36.477Z,6.65
2022-09-18T00:35:05.020Z,9.55
2022-09-18T00:37:33.866Z,4.28
2022-09-18T00:40:04.437Z,9.43
2022-09-18T00:42:32.856Z,11.05
2022-09-18T00:45:01.204Z,7.47
2022-09-18T00:47:31.657Z,9.48
2022-09-18T00:50:04.127Z,6.13
2022-09-18T00:52:34.753Z,7.68
2022-09-18T00:55:06.652Z,6.32
2022-09-18T00:57:38.014Z,7.28
2022-09-18T01:00:10.797Z,6.35
2022-09-18T01:02:39.236Z,7.18
2022-09-18T01:05:08.534Z,8.43
2022-09-18T01:07:43.525Z,5.72
2022-09-18T01:10:19.228Z,11.68
2022-09-18T01:12:54.050Z,8.13
2022-09-18T01:15:26.069Z,5.40
2022-09-18T01:17:58.718Z,8.77
2022-09-18T01:20:42.075Z,4.07
2022-09-18T01:23:16.876Z,6.40
2022-09-18T01:25:53.938Z,7.88
2022-09-18T01:28:26.864Z,8.65
2022-09-18T01:30:57.929Z,8.75
2022-09-18T01:33:30.580Z,6.53
2022-09-18T01:36:00.905Z,8.30
2022-09-18T01:38:31.451Z,7.82
2022-09-18T01:41:02.967Z,7.07
2022-09-18T01:43:33.564Z,4.78
2022-09-18T01:46:05.051Z,9.27
2022-09-18T01:48:34.282Z,8.77
2022-09-18T01:51:06.053Z,8.70
2022-09-18T01:53:36.710Z,4.65
2022-09-18T01:56:08.867Z,5.70
2022-09-18T01:58:38.854Z,4.43
2022-09-18T02:01:10.340Z,7.40
2022-09-18T02:03:40.939Z,9.55
2022-09-18T02:06:10.787Z,5.47
2022-09-18T02:08:41.699Z,4.25
2022-09-18T02:11:11.392Z,5.15
2022-09-18T02:13:43.522Z,4.82
2022-09-18T02:16:13.890Z,6.25
2022-09-18T02:18:43.177Z,6.18
2022-09-18T02:21:13.054Z,5.30
2022-09-18T02:23:43.255Z,5.40
2022-09-18T02:26:13.625Z,5.03
2022-09-18T02:28:44.037Z,9.10
2022-09-18T02:31:13.056Z,5.00
2022-09-18T02:33:41.762Z,5.38
2022-09-18T02:36:28.746Z,5.40
2022-09-18T02:39:02.555Z,6.35
2022-09-18T02:41:45.099Z,5.43
2022-09-18T02:44:18.594Z,9.07
2022-09-18T02:46:52.820Z,6.40
2022-09-18T02:49:27.022Z,6.82
2022-09-18T02:51:58.436Z,5.68
2022-09-18T02:54:29.023Z,6.55
2022-09-18T02:56:58.613Z,7.78
2022-09-18T02:59:31.565Z,6.93
2022-09-18T03:02:00.249Z,8.93
2022-09-18T03:04:29.529Z,7.22
2022-09-18T03:06:58.000Z,5.63
2022-09-18T03:09:26.651Z,5.47
2022-09-18T03:11:55.896Z,5.78
2022-09-18T03:14:24.456Z,5.85
2022-09-18T03:16:54.198Z,5.40
2022-09-18T03:19:22.598Z,5.10
2022-09-18T03:21:52.898Z,7.50
2022-09-18T03:24:21.700Z,5.03
2022-09-18T03:26:50.044Z,6.43
2022-09-18T03:29:18.542Z,7.68
2022-09-18T03:31:47.050Z,6.15
2022-09-18T03:34:16.837Z,6.78
2022-09-18T03:36:45.236Z,8.55
2022-09-18T03:39:16.064Z,8.80
2022-09-18T03:41:47.041Z,6.07
2022-09-18T03:44:15.408Z,8.25
2022-09-18T03:46:44.718Z,8.20
2022-09-18T03:49:13.110Z,6.40
2022-09-18T03:51:42.799Z,7.72
2022-09-18T03:54:11.135Z,4.82
2022-09-18T03:56:39.500Z,8.85
2022-09-18T03:59:07.924Z,6.55
2022-09-18T04:01:36.288Z,5.60
2022-09-18T04:04:04.673Z,7.90
2022-09-18T04:06:32.971Z,6.05
2022-09-18T04:09:02.828Z,7.30
2022-09-18T04:11:31.205Z,5.45
2022-09-18T04:13:59.584Z,5.05
2022-09-18T04:16:27.967Z,6.28
2022-09-18T04:18:56.516Z,5.38
2022-09-18T04:21:24.930Z,6.25
2022-09-18T04:23:53.505Z,4.57
2022-09-18T04:26:26.302Z,5.70
2022-09-18T04:28:57.261Z,6.00
2022-09-18T04:31:25.773Z,7.28
2022-09-18T04:33:54.146Z,7.95
2022-09-18T04:36:22.624Z,8.75
2022-09-18T04:38:50.974Z,4.97
2022-09-18T04:41:19.506Z,8.63
2022-09-18T04:43:49.331Z,8.05
2022-09-18T04:46:17.772Z,6.43
2022-09-18T04:48:48.585Z,5.43
2022-09-18T04:51:18.038Z,5.72
2022-09-18T04:53:46.390Z,3.92
2022-09-18T04:56:14.749Z,4.72
2022-09-18T04:58:43.385Z,7.22
2022-09-18T05:01:13.276Z,7.95
2022-09-18T05:03:41.748Z,6.00
2022-09-18T05:06:10.362Z,8.20
2022-09-18T05:08:39.288Z,7.75
2022-09-18T05:11:07.670Z,8.05
2022-09-18T05:13:39.510Z,7.47
2022-09-18T05:16:08.105Z,7.43
2022-09-18T05:18:37.816Z,12.73
2022-09-18T05:21:06.928Z,8.52
2022-09-18T05:23:35.817Z,10.23
2022-09-18T05:26:04.390Z,8.50
2022-09-18T05:28:32.725Z,10.65
2022-09-18T05:31:01.443Z,7.95
2022-09-18T05:33:29.915Z,14.50
2022-09-18T05:35:59.969Z,8.30
2022-09-18T05:38:28.477Z,9.75
2022-09-18T05:41:01.568Z,8.95
2022-09-18T05:43:30.265Z,10.00
2022-09-18T05:45:58.937Z,8.43
2022-09-18T05:48:27.336Z,9.65
2022-09-18T05:50:55.684Z,8.93
2022-09-18T05:53:25.363Z,8.55
2022-09-18T05:55:53.710Z,9.15
2022-09-18T05:58:22.326Z,7.47
2022-09-18T06:00:52.105Z,8.25
2022-09-18T06:03:20.500Z,8.30
2022-09-18T06:05:53.421Z,5.50
2022-09-18T06:08:22.670Z,7.50
2022-09-18T06:10:53.495Z,7.28
2022-09-18T06:13:21.863Z,5.63
2022-09-18T06:15:52.276Z,6.50
2022-09-18T06:18:20.854Z,8.65
2022-09-18T06:20:53.693Z,5.88
2022-09-18T06:23:22.551Z,11.35
2022-09-18T06:25:58.001Z,7.30
2022-09-18T06:28:26.374Z,9.90
2022-09-18T06:30:54.728Z,7.65
2022-09-18T06:33:23.131Z,10.43
2022-09-18T06:35:51.881Z,9.90
2022-09-18T06:38:20.265Z,6.65
2022-09-18T06:40:53.429Z,6.60
2022-09-18T06:43:22.022Z,8.07
2022-09-18T06:45:53.928Z,7.72
2022-09-18T06:48:22.633Z,8.90
2022-09-18T06:50:54.824Z,5.50
2022-09-18T06:53:23.291Z,7.43
2022-09-18T06:55:53.026Z,6.53
2022-09-18T06:58:21.601Z,7.43
2022-09-18T07:00:50.416Z,7.07
2022-09-18T07:03:18.935Z,6.07
2022-09-18T07:05:47.365Z,6.22
2022-09-18T07:08:15.796Z,3.65
2022-09-18T07:10:44.566Z,4.25
2022-09-18T07:13:14.229Z,6.10
2022-09-18T07:15:42.718Z,4.30
2022-09-18T07:18:11.765Z,3.83
2022-09-18T07:20:40.328Z,6.20
2022-09-18T07:23:08.718Z,3.35
2022-09-18T07:25:37.181Z,5.97
2022-09-18T07:28:07.857Z,4.88
2022-09-18T07:30:37.982Z,5.55
2022-09-18T07:33:07.302Z,6.20
2022-09-18T07:35:35.897Z,7.85
2022-09-18T07:38:05.913Z,4.13
2022-09-18T07:40:34.396Z,2.60
2022-09-18T07:43:03.108Z,3.10
2022-09-18T07:45:31.638Z,4.95
2022-09-18T07:48:02.945Z,6.05
2022-09-18T07:50:31.340Z,4.05
2022-09-18T07:53:02.152Z,4.47
2022-09-18T07:55:30.629Z,6.25
2022-09-18T07:57:59.785Z,7.10
2022-09-18T08:00:29.418Z,6.00
2022-09-18T08:03:04.318Z,4.80
2022-09-18T08:05:32.813Z,6.40
2022-09-18T08:08:04.382Z,4.78
2022-09-18T08:10:35.275Z,6.20
2022-09-18T08:13:03.829Z,7.03
2022-09-18T08:15:32.369Z,4.53
2022-09-18T08:18:00.971Z,8.52
2022-09-18T08:20:30.797Z,4.65
2022-09-18T08:22:59.440Z,5.05
2022-09-18T08:25:28.520Z,5.68
2022-09-18T08:27:56.845Z,5.18
2022-09-18T08:30:25.187Z,3.78
2022-09-18T08:32:53.796Z,6.40
2022-09-18T08:35:22.203Z,8.18
2022-09-18T08:37:51.989Z,4.93
2022-09-18T08:40:22.976Z,6.05
2022-09-18T08:43:01.656Z,4.40
2022-09-18T08:45:39.779Z,6.57
2022-09-18T08:48:10.097Z,6.80
2022-09-18T08:50:40.965Z,4.60
2022-09-18T08:53:15.517Z,5.40
2022-09-18T08:55:45.571Z,6.80
2022-09-18T08:58:15.605Z,3.45
2022-09-18T09:00:46.067Z,5.43
2022-09-18T09:03:20.164Z,4.80
2022-09-18T09:05:51.053Z,5.32
2022-09-18T09:08:35.532Z,5.22
2022-09-18T09:11:08.101Z,6.55
2022-09-18T09:13:58.678Z,5.53
2022-09-18T09:16:32.014Z,4.60
2022-09-18T09:19:01.206Z,4.43
2022-09-18T09:21:51.805Z,3.42
2022-09-18T09:24:28.071Z,5.90
2022-09-18T09:26:57.601Z,4.13
2022-09-18T09:29:29.839Z,2.75
2022-09-18T09:32:00.203Z,5.75
2022-09-18T09:34:32.092Z,6.25
2022-09-18T09:37:02.644Z,3.58
2022-09-18T09:39:36.215Z,3.63
2022-09-18T09:42:07.803Z,4.25
2022-09-18T09:44:38.919Z,5.28
2022-09-18T09:47:17.533Z,5.80
2022-09-18T09:49:49.709Z,6.05
2022-09-18T09:52:22.643Z,7.55
2022-09-18T09:54:55.484Z,6.80
2022-09-18T09:57:27.628Z,5.82
2022-09-18T10:00:02.027Z,5.60
2022-09-18T10:02:36.586Z,5.20
2022-09-18T10:05:07.893Z,10.48
2022-09-18T10:07:39.062Z,4.20
2022-09-18T10:10:16.457Z,5.93
2022-09-18T10:12:50.510Z,6.63
2022-09-18T10:15:21.261Z,4.97
2022-09-18T10:17:50.324Z,5.28
2022-09-18T10:20:19.358Z,4.57
2022-09-18T10:22:48.195Z,4.43
2022-09-18T10:25:21.084Z,4.18
2022-09-18T10:27:49.761Z,8.35
2022-09-18T10:30:18.434Z,3.55
2022-09-18T10:32:46.775Z,5.18
2022-09-18T10:35:35.637Z,6.13
2022-09-18T10:38:04.429Z,4.72
2022-09-18T10:40:37.230Z,4.13
2022-09-18T10:43:06.572Z,3.33
2022-09-18T10:45:38.026Z,4.97
2022-09-18T10:48:07.688Z,6.55
2022-09-18T10:50:37.356Z,6.50
2022-09-18T10:53:17.883Z,7.63
2022-09-18T10:55:55.170Z,5.03
2022-09-18T10:58:27.977Z,3.15
2022-09-18T11:00:57.760Z,4.10
2022-09-18T11:03:33.263Z,6.68
2022-09-18T11:06:03.684Z,6.18
2022-09-18T11:08:33.879Z,4.57
2022-09-18T11:11:05.224Z,5.72
2022-09-18T11:13:34.087Z,5.68
2022-09-18T11:16:05.443Z,5.90
2022-09-18T11:18:34.344Z,2.95
2022-09-18T11:21:04.274Z,3.97
2022-09-18T11:23:33.772Z,5.22
2022-09-18T11:26:13.882Z,2.13
2022-09-18T11:28:43.050Z,4.80
2022-09-18T11:31:13.543Z,3.35
2022-09-18T11:33:44.192Z,3.92
2022-09-18T11:36:14.585Z,3.15
2022-09-18T11:38:43.527Z,3.22
2022-09-18T11:41:14.075Z,2.38
2022-09-18T11:43:44.859Z,2.72
2022-09-18T11:46:18.871Z,4.13
2022-09-18T11:48:50.485Z,3.53
2022-09-18T11:51:26.682Z,10.05
2022-09-18T11:53:57.754Z,7.47
2022-09-18T11:56:32.170Z,6.00
2022-09-18T11:59:03.247Z,5.85
2022-09-18T12:01:35.387Z,6.60
2022-09-18T12:04:07.127Z,5.15
2022-09-18T12:06:41.429Z,4.95
2022-09-18T12:09:13.003Z,9.65
2022-09-18T12:11:45.668Z,10.68
2022-09-18T12:14:16.457Z,7.93
2022-09-18T12:16:48.682Z,8.68
2022-09-18T12:19:19.819Z,9.38
2022-09-18T12:21:51.974Z,6.88
2022-09-18T12:24:20.349Z,4.35
2022-09-18T12:26:56.525Z,3.58
2022-09-18T12:29:30.254Z,3.10
2022-09-18T12:32:03.557Z,3.10
2022-09-18T12:34:35.305Z,5.65
2022-09-18T12:37:10.599Z,4.32
2022-09-18T12:39:55.179Z,4.45
2022-09-18T12:42:29.356Z,3.10
2022-09-18T12:45:15.442Z,3.65
2022-09-18T12:47:51.240Z,2.45
2022-09-18T12:50:34.492Z,2.75
2022-09-18T12:53:09.758Z,2.55
2022-09-18T12:55:43.475Z,3.50
2022-09-18T12:58:18.479Z,2.28
2022-09-18T13:00:47.860Z,6.50
2022-09-18T13:03:19.581Z,5.07
2022-09-18T13:05:50.913Z,5.13
2022-09-18T13:08:20.925Z,3.95
2022-09-18T13:10:50.189Z,5.30
2022-09-18T13:13:21.747Z,5.68
2022-09-18T13:15:52.155Z,5.80
2022-09-18T13:18:31.323Z,3.33
2022-09-18T13:21:00.366Z,3.17
2022-09-18T13:23:29.667Z,6.38
2022-09-18T13:25:58.709Z,4.32
2022-09-18T13:28:29.162Z,4.70
2022-09-18T13:31:21.758Z,4.38
2022-09-18T13:33:52.141Z,4.05
2022-09-18T13:36:24.444Z,6.30
2022-09-18T13:38:52.973Z,5.32
2022-09-18T13:41:21.768Z,7.50
2022-09-18T13:43:56.158Z,5.05
2022-09-18T13:46:32.952Z,6.30
2022-09-18T13:49:02.717Z,3.65
2022-09-18T13:51:33.129Z,3.33
2022-09-18T13:54:19.681Z,6.35
2022-09-18T13:57:10.765Z,3.70
2022-09-18T13:59:47.712Z,9.98
2022-09-18T14:02:33.037Z,4.07
2022-09-18T14:05:02.947Z,5.70
2022-09-18T14:07:58.293Z,4.93
2022-09-18T14:10:28.475Z,3.80
2022-09-18T14:13:07.423Z,4.45
2022-09-18T14:15:37.803Z,6.53
2022-09-18T14:18:08.072Z,4.13
2022-09-18T14:20:36.659Z,4.72
2022-09-18T14:23:23.868Z,6.00
2022-09-18T14:25:52.246Z,6.65
2022-09-18T14:28:21.481Z,5.82
2022-09-18T14:31:12.884Z,3.28
2022-09-18T14:33:42.323Z,5.15
2022-09-18T14:36:14.656Z,5.47
2022-09-18T14:38:43.315Z,5.15
2022-09-18T14:41:19.312Z,6.15
2022-09-18T14:43:51.447Z,6.50
2022-09-18T14:46:22.216Z,4.03
2022-09-18T14:48:50.712Z,6.43
2022-09-18T14:51:20.000Z,5.68
2022-09-18T14:53:50.693Z,2.25
2022-09-18T14:56:19.907Z,3.17
2022-09-18T14:58:51.618Z,4.20
2022-09-18T15:01:25.466Z,2.85
2022-09-18T15:03:55.447Z,8.57
2022-09-18T15:06:25.590Z,2.95
2022-09-18T15:08:55.256Z,5.40
2022-09-18T15:11:25.388Z,6.28
2022-09-18T15:13:54.875Z,4.47
2022-09-18T15:16:28.131Z,4.25
2022-09-18T15:18:57.125Z,4.50
2022-09-18T15:21:28.916Z,5.88
2022-09-18T15:24:02.267Z,5.68
2022-09-18T15:26:32.691Z,3.60
2022-09-18T15:29:02.089Z,5.25
2022-09-18T15:31:33.681Z,3.97
2022-09-18T15:34:04.606Z,4.15
2022-09-18T15:36:33.928Z,5.32
2022-09-18T15:39:02.471Z,3.53
2022-09-18T15:41:35.153Z,4.63
2022-09-18T15:44:03.879Z,3.70
2022-09-18T15:46:34.276Z,4.28
2022-09-18T15:49:04.152Z,5.82
2022-09-18T15:51:33.300Z,1.88
2022-09-18T15:54:07.541Z,3.25
2022-09-18T15:56:36.207Z,6.47
2022-09-18T15:59:06.065Z,4.60
2022-09-18T16:01:37.156Z,4.63
2022-09-18T16:04:08.966Z,5.63
2022-09-18T16:06:43.722Z,8.68
2022-09-18T16:09:23.315Z,7.30
2022-09-18T16:11:51.951Z,5.10
2022-09-18T16:14:39.204Z,4.68
2022-09-18T16:17:26.823Z,9.40
2022-09-18T16:19:56.920Z,7.57
2022-09-18T16:22:25.484Z,5.35
2022-09-18T16:24:56.460Z,6.95
2022-09-18T16:27:25.655Z,5.88
2022-09-18T16:29:54.001Z,10.77
2022-09-18T16:32:22.690Z,4.32
2022-09-18T16:34:51.083Z,4.18
2022-09-18T16:37:22.975Z,2.60
2022-09-18T16:39:51.352Z,2.67
2022-09-18T16:42:20.715Z,3.63
2022-09-18T16:44:49.235Z,1.90
2022-09-18T16:47:17.999Z,3.63
2022-09-18T16:49:49.258Z,2.53
2022-09-18T16:52:18.092Z,6.57
2022-09-18T16:54:47.965Z,3.50
2022-09-18T16:57:18.352Z,2.72
2022-09-18T16:59:48.547Z,7.03
2022-09-18T17:02:18.740Z,5.07
2022-09-18T17:04:47.121Z,5.32
2022-09-18T17:07:15.562Z,3.35
2022-09-18T17:09:43.887Z,4.72
2022-09-18T17:12:13.657Z,3.78
2022-09-18T17:14:42.194Z,3.15
2022-09-18T17:17:11.605Z,2.38
2022-09-18T17:19:41.029Z,4.25
2022-09-18T17:22:09.436Z,3.78
2022-09-18T17:24:37.994Z,4.10
2022-09-18T17:27:06.387Z,3.45
2022-09-18T17:29:36.159Z,6.00
2022-09-18T17:32:06.745Z,4.00
2022-09-18T17:34:35.473Z,3.95
2022-09-18T17:37:04.299Z,4.70
2022-09-18T17:39:32.602Z,2.47
2022-09-18T17:42:01.031Z,4.45
2022-09-18T17:44:34.443Z,3.40
2022-09-18T17:47:04.443Z,4.50
2022-09-18T17:49:33.515Z,3.63
2022-09-18T17:52:02.007Z,3.75
2022-09-18T17:54:32.110Z,4.13
2022-09-18T17:57:00.508Z,6.55
2022-09-18T17:59:31.296Z,5.65
2022-09-18T18:01:59.766Z,5.10
2022-09-18T18:04:29.531Z,4.75
2022-09-18T18:06:58.015Z,2.72
2022-09-18T18:09:26.514Z,2.88
2022-09-18T18:11:55.158Z,2.42
2022-09-18T18:14:25.166Z,2.30
2022-09-18T18:16:55.226Z,5.85
2022-09-18T18:19:23.586Z,5.47
2022-09-18T18:21:53.885Z,2.63
2022-09-18T18:24:22.615Z,4.30
2022-09-18T18:26:50.910Z,3.63
2022-09-18T18:29:21.618Z,3.38
2022-09-18T18:31:51.695Z,4.75
2022-09-18T18:34:23.306Z,8.00
2022-09-18T18:36:56.173Z,3.45
2022-09-18T18:39:24.836Z,4.43
2022-09-18T18:41:53.207Z,3.28
2022-09-18T18:44:21.572Z,4.43
2022-09-18T18:46:50.114Z,3.85
2022-09-18T18:49:18.975Z,2.00
2022-09-18T18:51:48.424Z,3.70
2022-09-18T18:54:19.324Z,3.40
2022-09-18T18:56:48.140Z,3.53
2022-09-18T18:59:17.396Z,2.85
2022-09-18T19:01:47.342Z,6.05
2022-09-18T19:04:17.272Z,5.00
2022-09-18T19:06:48.842Z,6.10
2022-09-18T19:09:20.644Z,4.63
2022-09-18T19:11:49.577Z,7.30
2022-09-18T19:14:19.293Z,5.90
2022-09-18T19:16:48.194Z,4.20
2022-09-18T19:19:17.424Z,3.78
2022-09-18T19:21:46.150Z,4.70
2022-09-18T19:24:14.946Z,5.85
2022-09-18T19:26:45.392Z,4.85
2022-09-18T19:29:14.984Z,5.43
2022-09-18T19:31:44.442Z,3.08
2022-09-18T19:34:14.123Z,4.43
2022-09-18T19:36:43.099Z,4.55
2022-09-18T19:39:13.409Z,3.47
2022-09-18T19:41:44.900Z,3.67
2022-09-18T19:44:17.558Z,4.88
2022-09-18T19:46:48.157Z,2.70
2022-09-18T19:49:18.482Z,2.95
2022-09-18T19:51:47.474Z,3.90
2022-09-18T19:54:16.219Z,3.70
2022-09-18T19:56:47.593Z,4.25
2022-09-18T19:59:17.908Z,2.78
2022-09-18T20:01:46.338Z,2.60
2022-09-18T20:04:14.990Z,4.25
2022-09-18T20:06:44.461Z,3.72
2022-09-18T20:09:12.877Z,3.60
2022-09-18T20:11:42.223Z,4.35
2022-09-18T20:14:12.909Z,4.50
2022-09-18T20:16:42.642Z,6.68
2022-09-18T20:19:11.202Z,3.50
2022-09-18T20:21:39.639Z,4.72
2022-09-18T20:24:08.395Z,6.20
2022-09-18T20:26:36.867Z,4.93
2022-09-18T20:29:05.560Z,6.10
2022-09-18T20:31:36.150Z,5.57
2022-09-18T20:34:06.621Z,5.13
2022-09-18T20:36:35.350Z,4.05
2022-09-18T20:39:03.891Z,5.00
2022-09-18T20:41:32.348Z,5.90
2022-09-18T20:44:05.082Z,6.05
2022-09-18T20:46:37.150Z,8.32
2022-09-18T20:49:08.245Z,6.50
2022-09-18T20:51:37.024Z,7.05
2022-09-18T20:54:07.037Z,5.25
2022-09-18T20:56:36.741Z,7.95
2022-09-18T20:59:05.559Z,7.03
2022-09-18T21:01:37.854Z,9.13
2022-09-18T21:04:08.542Z,6.50
2022-09-18T21:06:37.596Z,3.78
2022-09-18T21:09:06.968Z,4.88
2022-09-18T21:11:37.926Z,10.00
2022-09-18T21:14:07.188Z,7.35
2022-09-18T21:16:36.763Z,9.73
2022-09-18T21:19:05.698Z,11.00
2022-09-18T21:21:35.864Z,12.10
2022-09-18T21:24:05.340Z,14.05
2022-09-18T21:26:34.618Z,18.73
2022-09-18T21:29:03.730Z,21.88
2022-09-18T21:31:42.625Z,25.17
2022-09-18T21:34:11.493Z,17.00
2022-09-18T21:36:43.372Z,18.92
2022-09-18T21:39:12.458Z,15.90
2022-09-18T21:41:45.801Z,23.38
2022-09-18T21:44:14.912Z,22.20
2022-09-18T21:46:45.963Z,18.55
2022-09-18T21:49:16.288Z,17.88
2022-09-18T21:51:46.716Z,15.02
2022-09-18T21:54:16.340Z,11.48
2022-09-18T21:56:45.569Z,8.70
2022-09-18T21:59:13.919Z,7.72
2022-09-18T22:01:43.345Z,9.85
2022-09-18T22:04:13.399Z,10.80
2022-09-18T22:06:42.717Z,13.80
2022-09-18T22:09:13.338Z,14.38
2022-09-18T22:11:41.992Z,19.55
2022-09-18T22:14:11.090Z,23.85
2022-09-18T22:16:39.841Z,15.82
2022-09-18T22:19:09.280Z,13.25
2022-09-18T22:21:38.891Z,13.95
2022-09-18T22:24:08.975Z,18.35
2022-09-18T22:26:39.749Z,20.15
2022-09-18T22:29:08.841Z,16.48
2022-09-18T22:31:38.051Z,12.82
2022-09-18T22:34:07.328Z,19.55
2022-09-18T22:36:35.679Z,9.50
2022-09-18T22:39:04.035Z,8.27
2022-09-18T22:41:32.384Z,14.65
2022-09-18T22:44:02.117Z,8.80
2022-09-18T22:46:31.036Z,5.93
2022-09-18T22:48:59.666Z,10.90
2022-09-18T22:51:28.653Z,5.43
2022-09-18T22:53:57.734Z,10.70
2022-09-18T22:56:27.091Z,10.32
2022-09-18T22:58:56.026Z,9.43
2022-09-18T23:01:27.411Z,6.70
2022-09-18T23:03:56.917Z,9.60
2022-09-18T23:06:26.348Z,12.90
2022-09-18T23:08:55.003Z,12.68
2022-09-18T23:11:24.547Z,7.97
2022-09-18T23:13:53.894Z,10.70
2022-09-18T23:16:23.217Z,11.15
2022-09-18T23:18:54.409Z,11.30
2022-09-18T23:21:23.746Z,7.35
2022-09-18T23:23:52.122Z,12.27
2022-09-18T23:26:23.209Z,11.00
2022-09-18T23:28:52.405Z,10.20
2022-09-18T23:31:21.484Z,8.68
2022-09-18T23:33:50.543Z,10.35
2022-09-18T23:36:21.449Z,11.05
2022-09-18T23:38:50.676Z,11.10
2022-09-18T23:41:18.994Z,7.97
2022-09-18T23:43:49.515Z,6.25
2022-09-18T23:46:18.526Z,10.77
2022-09-18T23:48:47.461Z,7.93
2022-09-18T23:51:16.152Z,14.15
2022-09-18T23:53:45.855Z,10.02
2022-09-18T23:56:16.306Z,8.25
2022-09-18T23:58:45.236Z,8.60
